TAP1862 LPPD-LPPT
Flight info
| Callsign | TAP1862 |
|---|---|
| Flight time | N/A |
| Altitude | 39000 |
| Route | JETAF DCT BEKUN DCT 38N020W DCT KOMUT/N0438F380 DCT TABAX DCT LAZET |
| Aircraft | A332/H-SDE1E2E3FGHIJ2J3J5M1P2RWXYZ/LB1D1 |
Departure
| Time | 2026-05-04 21:34 |
|---|---|
| Airport | João Paulo II Airport (LPPD) |
Arrival
| Time | N/A |
|---|---|
| Airport | Lisbon Humberto Delgado Airport (LPPT) |
| Time | Latitude | Longitude | Altitude | Speed | Heading |
|---|---|---|---|---|---|
| 2026-05-04 21:19 | 37.74805 | -25.70865 | 272 ft | 0 kts | 22° |
| 2026-05-04 21:27 | 37.74800 | -25.70867 | 272 ft | 3 kts | 22° |
| 2026-05-04 21:27 | 37.74775 | -25.70880 | 272 ft | 4 kts | 22° |
| 2026-05-04 21:27 | 37.74754 | -25.70891 | 272 ft | 4 kts | 43° |
| 2026-05-04 21:27 | 37.74745 | -25.70917 | 272 ft | 4 kts | 99° |
| 2026-05-04 21:28 | 37.74750 | -25.70942 | 272 ft | 1 kts | 112° |
| 2026-05-04 21:28 | 37.74752 | -25.70946 | 272 ft | 0 kts | 112° |
| 2026-05-04 21:30 | 37.74751 | -25.70943 | 272 ft | 3 kts | 111° |
| 2026-05-04 21:30 | 37.74738 | -25.70902 | 272 ft | 4 kts | 114° |
| 2026-05-04 21:30 | 37.74715 | -25.70834 | 272 ft | 14 kts | 113° |
| 2026-05-04 21:31 | 37.74627 | -25.70556 | 272 ft | 20 kts | 111° |
| 2026-05-04 21:31 | 37.74550 | -25.70430 | 272 ft | 18 kts | 134° |
| 2026-05-04 21:31 | 37.74445 | -25.70310 | 272 ft | 21 kts | 143° |
| 2026-05-04 21:32 | 37.74359 | -25.70312 | 272 ft | 7 kts | 247° |
| 2026-05-04 21:32 | 37.74371 | -25.70349 | 272 ft | 8 kts | 297° |
| 2026-05-04 21:32 | 37.74418 | -25.70458 | 272 ft | 20 kts | 292° |
| 2026-05-04 21:32 | 37.74478 | -25.70648 | 272 ft | 24 kts | 291° |
| 2026-05-04 21:33 | 37.74541 | -25.70849 | 272 ft | 25 kts | 292° |
| 2026-05-04 21:33 | 37.74632 | -25.70982 | 272 ft | 15 kts | 334° |
| 2026-05-04 21:33 | 37.74634 | -25.71068 | 272 ft | 10 kts | 206° |
| 2026-05-04 21:33 | 37.74602 | -25.71040 | 272 ft | 5 kts | 116° |
| 2026-05-04 21:34 | 37.74554 | -25.70883 | 272 ft | 49 kts | 111° |
| 2026-05-04 21:34 | 37.74343 | -25.70215 | 272 ft | 112 kts | 112° |
| 2026-05-04 21:34 | 37.73989 | -25.69093 | 356 ft | 155 kts | 112° |
| 2026-05-04 21:34 | 37.73595 | -25.67821 | 1016 ft | 153 kts | 112° |
| 2026-05-04 21:35 | 37.73199 | -25.66562 | 1622 ft | 162 kts | 112° |
| 2026-05-04 21:35 | 37.72746 | -25.65141 | 1877 ft | 189 kts | 112° |
| 2026-05-04 21:35 | 37.72212 | -25.63464 | 2070 ft | 223 kts | 112° |
| 2026-05-04 21:35 | 37.71597 | -25.61523 | 2403 ft | 251 kts | 112° |
| 2026-05-04 21:36 | 37.71161 | -25.60143 | 2830 ft | 259 kts | 112° |
| 2026-05-04 21:36 | 37.70255 | -25.57275 | 3964 ft | 266 kts | 112° |
| 2026-05-04 21:36 | 37.69797 | -25.55829 | 4561 ft | 269 kts | 112° |
| 2026-05-04 21:36 | 37.69099 | -25.53623 | 5459 ft | 273 kts | 112° |
| 2026-05-04 21:37 | 37.68391 | -25.51387 | 6346 ft | 277 kts | 112° |
| 2026-05-04 21:37 | 37.67757 | -25.49074 | 7223 ft | 281 kts | 103° |
| 2026-05-04 21:37 | 37.67536 | -25.46611 | 8105 ft | 285 kts | 89° |
| 2026-05-04 21:37 | 37.67667 | -25.44093 | 8944 ft | 290 kts | 84° |
| 2026-05-04 21:38 | 37.67956 | -25.41551 | 9769 ft | 295 kts | 81° |
| 2026-05-04 21:38 | 37.68324 | -25.38977 | 10428 ft | 307 kts | 79° |
| 2026-05-04 21:38 | 37.68740 | -25.36233 | 10744 ft | 328 kts | 79° |
| 2026-05-04 21:38 | 37.69173 | -25.33329 | 11163 ft | 342 kts | 79° |
| 2026-05-04 21:39 | 37.69600 | -25.30345 | 11776 ft | 349 kts | 80° |
| 2026-05-04 21:39 | 37.70017 | -25.27306 | 12432 ft | 353 kts | 81° |
| 2026-05-04 21:39 | 37.70427 | -25.24235 | 13066 ft | 357 kts | 81° |
| 2026-05-04 21:39 | 37.70834 | -25.21119 | 13675 ft | 361 kts | 81° |
| 2026-05-04 21:40 | 37.71240 | -25.17987 | 14251 ft | 365 kts | 81° |
| 2026-05-04 21:40 | 37.71653 | -25.14791 | 14813 ft | 369 kts | 81° |
| 2026-05-04 21:40 | 37.72067 | -25.11576 | 15345 ft | 373 kts | 81° |
| 2026-05-04 21:40 | 37.72485 | -25.08331 | 15854 ft | 376 kts | 81° |
| 2026-05-04 21:41 | 37.72907 | -25.05056 | 16341 ft | 379 kts | 81° |
| 2026-05-04 21:41 | 37.73332 | -25.01752 | 16806 ft | 383 kts | 81° |
| 2026-05-04 21:41 | 37.73759 | -24.98426 | 17248 ft | 386 kts | 81° |
| 2026-05-04 21:41 | 37.74190 | -24.95064 | 17670 ft | 389 kts | 81° |
| 2026-05-04 21:42 | 37.74622 | -24.91684 | 18071 ft | 392 kts | 81° |
| 2026-05-04 21:42 | 37.75058 | -24.88269 | 18455 ft | 395 kts | 81° |
| 2026-05-04 21:42 | 37.75494 | -24.84835 | 18824 ft | 397 kts | 81° |
| 2026-05-04 21:42 | 37.75933 | -24.81380 | 19176 ft | 400 kts | 81° |
| 2026-05-04 21:43 | 37.76373 | -24.77907 | 19513 ft | 402 kts | 81° |
| 2026-05-04 21:43 | 37.76810 | -24.74443 | 19835 ft | 405 kts | 81° |
| 2026-05-04 21:43 | 37.77254 | -24.70920 | 20147 ft | 407 kts | 81° |
| 2026-05-04 21:43 | 37.77699 | -24.67379 | 20449 ft | 409 kts | 81° |
| 2026-05-04 21:44 | 37.78146 | -24.63819 | 20740 ft | 412 kts | 81° |
| 2026-05-04 21:44 | 37.78593 | -24.60243 | 21021 ft | 414 kts | 81° |
| 2026-05-04 21:44 | 37.79043 | -24.56632 | 21292 ft | 416 kts | 81° |
| 2026-05-04 21:44 | 37.79493 | -24.53016 | 21553 ft | 418 kts | 81° |
| 2026-05-04 21:45 | 37.79945 | -24.49375 | 21806 ft | 420 kts | 81° |
| 2026-05-04 21:45 | 37.80397 | -24.45722 | 22052 ft | 422 kts | 81° |
| 2026-05-04 21:45 | 37.80850 | -24.42051 | 22293 ft | 424 kts | 81° |
| 2026-05-04 21:45 | 37.81304 | -24.38364 | 22521 ft | 425 kts | 81° |
| 2026-05-04 21:46 | 37.81759 | -24.34659 | 22742 ft | 427 kts | 81° |
| 2026-05-04 21:46 | 37.82214 | -24.30938 | 22956 ft | 429 kts | 81° |
| 2026-05-04 21:46 | 37.82670 | -24.27204 | 23161 ft | 431 kts | 81° |
| 2026-05-04 21:46 | 37.83127 | -24.23455 | 23362 ft | 432 kts | 81° |
| 2026-05-04 21:47 | 37.83584 | -24.19693 | 23556 ft | 434 kts | 81° |
| 2026-05-04 21:47 | 37.84042 | -24.15913 | 23743 ft | 435 kts | 81° |
| 2026-05-04 21:47 | 37.84500 | -24.12120 | 23925 ft | 437 kts | 81° |
| 2026-05-04 21:47 | 37.84958 | -24.08314 | 24100 ft | 438 kts | 81° |
| 2026-05-04 21:48 | 37.85416 | -24.04502 | 24270 ft | 440 kts | 81° |
| 2026-05-04 21:48 | 37.85875 | -24.00674 | 24438 ft | 441 kts | 82° |
| 2026-05-04 21:48 | 37.86334 | -23.96831 | 24598 ft | 442 kts | 82° |
| 2026-05-04 21:48 | 37.86792 | -23.92984 | 24754 ft | 443 kts | 82° |
| 2026-05-04 21:49 | 37.87251 | -23.89117 | 24900 ft | 445 kts | 82° |
| 2026-05-04 21:49 | 37.87710 | -23.85240 | 25043 ft | 446 kts | 82° |
| 2026-05-04 21:49 | 37.88170 | -23.81350 | 25183 ft | 447 kts | 82° |
| 2026-05-04 21:49 | 37.88627 | -23.77461 | 25318 ft | 448 kts | 82° |
| 2026-05-04 21:50 | 37.89086 | -23.73553 | 25449 ft | 449 kts | 82° |
| 2026-05-04 21:50 | 37.89545 | -23.69631 | 25572 ft | 450 kts | 82° |
| 2026-05-04 21:50 | 37.90004 | -23.65701 | 25693 ft | 451 kts | 82° |
| 2026-05-04 21:50 | 37.90460 | -23.61781 | 25810 ft | 452 kts | 82° |
| 2026-05-04 21:51 | 37.90919 | -23.57821 | 25924 ft | 453 kts | 82° |
| 2026-05-04 21:51 | 37.91201 | -23.55385 | 26099 ft | 453 kts | 82° |
| 2026-05-04 21:51 | 37.91450 | -23.53222 | 26252 ft | 452 kts | 82° |
| 2026-05-04 21:52 | 37.91613 | -23.51800 | 26394 ft | 452 kts | 82° |
| 2026-05-04 21:52 | 37.91730 | -23.50784 | 26573 ft | 450 kts | 82° |
| 2026-05-04 21:52 | 37.92172 | -23.46949 | 26957 ft | 445 kts | 82° |
| 2026-05-04 21:52 | 37.92618 | -23.43061 | 27053 ft | 448 kts | 82° |
| 2026-05-04 21:53 | 37.93066 | -23.39132 | 27290 ft | 453 kts | 81° |